sensor_id;sensor_type;location;lat;lon;timestamp;P1;durP1;ratioP1;P2;durP2;ratioP2
8610;SDS011;4343;53.648;10.098;2022-07-23T00:18:35;1.73;;;1.10;;
8610;SDS011;4343;53.648;10.098;2022-07-23T00:21:01;2.05;;;1.20;;
8610;SDS011;4343;53.648;10.098;2022-07-23T00:23:27;1.10;;;1.10;;
8610;SDS011;4343;53.648;10.098;2022-07-23T00:25:57;1.20;;;1.20;;
8610;SDS011;4343;53.648;10.098;2022-07-23T00:40:35;1.25;;;1.15;;
8610;SDS011;4343;53.648;10.098;2022-07-23T00:43:03;1.58;;;1.25;;
8610;SDS011;4343;53.648;10.098;2022-07-23T00:45:31;1.00;;;1.00;;
8610;SDS011;4343;53.648;10.098;2022-07-23T00:47:58;1.60;;;1.50;;
8610;SDS011;4343;53.648;10.098;2022-07-23T00:50:25;1.27;;;1.17;;
8610;SDS011;4343;53.648;10.098;2022-07-23T00:52:52;1.02;;;1.02;;
8610;SDS011;4343;53.648;10.098;2022-07-23T00:55:19;1.17;;;0.90;;
8610;SDS011;4343;53.648;10.098;2022-07-23T00:57:45;2.03;;;1.10;;
8610;SDS011;4343;53.648;10.098;2022-07-23T01:00:13;2.28;;;1.33;;
8610;SDS011;4343;53.648;10.098;2022-07-23T01:02:41;1.58;;;1.00;;
8610;SDS011;4343;53.648;10.098;2022-07-23T01:05:13;1.27;;;1.17;;
8610;SDS011;4343;53.648;10.098;2022-07-23T01:07:40;2.08;;;1.08;;
8610;SDS011;4343;53.648;10.098;2022-07-23T01:10:06;3.30;;;1.10;;
8610;SDS011;4343;53.648;10.098;2022-07-23T01:12:53;1.17;;;1.05;;
8610;SDS011;4343;53.648;10.098;2022-07-23T01:15:22;1.27;;;1.15;;
8610;SDS011;4343;53.648;10.098;2022-07-23T01:17:48;1.13;;;1.00;;
8610;SDS011;4343;53.648;10.098;2022-07-23T01:20:19;3.50;;;1.80;;
8610;SDS011;4343;53.648;10.098;2022-07-23T01:22:48;1.20;;;1.20;;
8610;SDS011;4343;53.648;10.098;2022-07-23T01:25:16;1.00;;;1.00;;
8610;SDS011;4343;53.648;10.098;2022-07-23T01:27:43;1.30;;;1.20;;
8610;SDS011;4343;53.648;10.098;2022-07-23T01:30:09;0.98;;;0.98;;
8610;SDS011;4343;53.648;10.098;2022-07-23T01:32:37;2.10;;;1.02;;
8610;SDS011;4343;53.648;10.098;2022-07-23T01:35:10;1.02;;;1.02;;
8610;SDS011;4343;53.648;10.098;2022-07-23T01:38:00;1.20;;;1.10;;
8610;SDS011;4343;53.648;10.098;2022-07-23T01:41:41;2.00;;;1.40;;
8610;SDS011;4343;53.648;10.098;2022-07-23T01:45:09;0.85;;;0.85;;
8610;SDS011;4343;53.648;10.098;2022-07-23T01:48:36;1.20;;;0.93;;
8610;SDS011;4343;53.648;10.098;2022-07-23T01:51:58;0.90;;;0.90;;
8610;SDS011;4343;53.648;10.098;2022-07-23T01:54:47;1.23;;;1.00;;
8610;SDS011;4343;53.648;10.098;2022-07-23T02:01:47;1.95;;;1.17;;
8610;SDS011;4343;53.648;10.098;2022-07-23T02:05:18;1.20;;;1.10;;
8610;SDS011;4343;53.648;10.098;2022-07-23T02:08:48;1.33;;;1.00;;
8610;SDS011;4343;53.648;10.098;2022-07-23T02:12:18;1.17;;;1.17;;
8610;SDS011;4343;53.648;10.098;2022-07-23T02:15:11;2.58;;;1.00;;
8610;SDS011;4343;53.648;10.098;2022-07-23T02:18:43;1.30;;;1.10;;
8610;SDS011;4343;53.648;10.098;2022-07-23T02:21:11;1.20;;;0.90;;
8610;SDS011;4343;53.648;10.098;2022-07-23T02:50:45;1.08;;;1.08;;
8610;SDS011;4343;53.648;10.098;2022-07-23T02:53:17;1.20;;;1.10;;
8610;SDS011;4343;53.648;10.098;2022-07-23T02:56:45;1.27;;;1.27;;
8610;SDS011;4343;53.648;10.098;2022-07-23T06:29:52;1.02;;;0.98;;
8610;SDS011;4343;53.648;10.098;2022-07-23T06:32:20;0.88;;;0.88;;
8610;SDS011;4343;53.648;10.098;2022-07-23T06:34:58;1.02;;;1.00;;
8610;SDS011;4343;53.648;10.098;2022-07-23T06:37:25;1.17;;;1.00;;
8610;SDS011;4343;53.648;10.098;2022-07-23T06:39:51;0.93;;;0.93;;
8610;SDS011;4343;53.648;10.098;2022-07-23T06:42:17;1.27;;;1.10;;
8610;SDS011;4343;53.648;10.098;2022-07-23T06:44:43;1.00;;;1.00;;
8610;SDS011;4343;53.648;10.098;2022-07-23T06:47:08;0.90;;;0.90;;
8610;SDS011;4343;53.648;10.098;2022-07-23T06:49:34;0.85;;;0.80;;
8610;SDS011;4343;53.648;10.098;2022-07-23T06:51:59;1.00;;;1.00;;
8610;SDS011;4343;53.648;10.098;2022-07-23T06:54:25;1.02;;;0.90;;
8610;SDS011;4343;53.648;10.098;2022-07-23T06:56:50;0.85;;;0.85;;
8610;SDS011;4343;53.648;10.098;2022-07-23T06:59:16;1.10;;;1.10;;
8610;SDS011;4343;53.648;10.098;2022-07-23T07:01:41;1.20;;;0.98;;
8610;SDS011;4343;53.648;10.098;2022-07-23T07:04:07;1.38;;;1.27;;
8610;SDS011;4343;53.648;10.098;2022-07-23T07:06:33;0.68;;;0.68;;
8610;SDS011;4343;53.648;10.098;2022-07-23T07:08:59;1.90;;;1.13;;
8610;SDS011;4343;53.648;10.098;2022-07-23T07:11:24;1.00;;;1.00;;
8610;SDS011;4343;53.648;10.098;2022-07-23T07:13:50;1.00;;;1.00;;
8610;SDS011;4343;53.648;10.098;2022-07-23T07:16:16;0.90;;;0.90;;
8610;SDS011;4343;53.648;10.098;2022-07-23T07:18:42;1.00;;;0.90;;
8610;SDS011;4343;53.648;10.098;2022-07-23T07:21:07;0.85;;;0.85;;
8610;SDS011;4343;53.648;10.098;2022-07-23T07:23:33;0.90;;;0.90;;
8610;SDS011;4343;53.648;10.098;2022-07-23T07:25:58;0.80;;;0.80;;
8610;SDS011;4343;53.648;10.098;2022-07-23T07:28:24;1.00;;;1.00;;
8610;SDS011;4343;53.648;10.098;2022-07-23T07:30:49;0.80;;;0.80;;
8610;SDS011;4343;53.648;10.098;2022-07-23T07:33:15;1.00;;;0.90;;
8610;SDS011;4343;53.648;10.098;2022-07-23T07:35:41;0.80;;;0.80;;
8610;SDS011;4343;53.648;10.098;2022-07-23T07:38:06;0.88;;;0.88;;
8610;SDS011;4343;53.648;10.098;2022-07-23T07:40:32;0.80;;;0.80;;
8610;SDS011;4343;53.648;10.098;2022-07-23T07:42:57;1.03;;;0.93;;
8610;SDS011;4343;53.648;10.098;2022-07-23T07:45:23;1.70;;;1.00;;
8610;SDS011;4343;53.648;10.098;2022-07-23T07:47:50;0.80;;;0.80;;
8610;SDS011;4343;53.648;10.098;2022-07-23T07:50:17;0.98;;;0.95;;
8610;SDS011;4343;53.648;10.098;2022-07-23T07:52:43;0.90;;;0.90;;
8610;SDS011;4343;53.648;10.098;2022-07-23T07:55:09;0.70;;;0.70;;
8610;SDS011;4343;53.648;10.098;2022-07-23T07:57:36;0.83;;;0.83;;
8610;SDS011;4343;53.648;10.098;2022-07-23T08:00:05;1.00;;;1.00;;
8610;SDS011;4343;53.648;10.098;2022-07-23T08:05:28;1.27;;;1.05;;
8610;SDS011;4343;53.648;10.098;2022-07-23T08:07:55;1.00;;;0.90;;
8610;SDS011;4343;53.648;10.098;2022-07-23T08:15:17;0.80;;;0.80;;
8610;SDS011;4343;53.648;10.098;2022-07-23T08:17:44;1.77;;;0.80;;
8610;SDS011;4343;53.648;10.098;2022-07-23T08:20:12;2.03;;;1.20;;
8610;SDS011;4343;53.648;10.098;2022-07-23T08:22:46;0.93;;;0.93;;
8610;SDS011;4343;53.648;10.098;2022-07-23T08:25:14;1.00;;;0.90;;
8610;SDS011;4343;53.648;10.098;2022-07-23T08:27:41;1.20;;;0.80;;
8610;SDS011;4343;53.648;10.098;2022-07-23T08:30:06;0.70;;;0.70;;
8610;SDS011;4343;53.648;10.098;2022-07-23T08:32:33;0.80;;;0.80;;
8610;SDS011;4343;53.648;10.098;2022-07-23T08:35:11;1.73;;;1.10;;
8610;SDS011;4343;53.648;10.098;2022-07-23T08:37:37;0.95;;;0.95;;
8610;SDS011;4343;53.648;10.098;2022-07-23T08:40:03;0.88;;;0.80;;
8610;SDS011;4343;53.648;10.098;2022-07-23T08:42:28;1.10;;;0.90;;
8610;SDS011;4343;53.648;10.098;2022-07-23T08:44:54;1.67;;;1.00;;
8610;SDS011;4343;53.648;10.098;2022-07-23T08:47:20;0.90;;;0.90;;
8610;SDS011;4343;53.648;10.098;2022-07-23T08:49:46;1.08;;;0.95;;
8610;SDS011;4343;53.648;10.098;2022-07-23T08:52:12;1.55;;;1.00;;
8610;SDS011;4343;53.648;10.098;2022-07-23T08:54:39;1.00;;;1.00;;
8610;SDS011;4343;53.648;10.098;2022-07-23T08:57:05;1.05;;;0.95;;
8610;SDS011;4343;53.648;10.098;2022-07-23T08:59:31;1.13;;;0.88;;
8610;SDS011;4343;53.648;10.098;2022-07-23T09:01:57;0.70;;;0.70;;
8610;SDS011;4343;53.648;10.098;2022-07-23T09:04:23;0.90;;;0.90;;
8610;SDS011;4343;53.648;10.098;2022-07-23T09:06:49;0.80;;;0.80;;
8610;SDS011;4343;53.648;10.098;2022-07-23T09:09:19;1.20;;;1.08;;
8610;SDS011;4343;53.648;10.098;2022-07-23T09:11:45;0.70;;;0.70;;
8610;SDS011;4343;53.648;10.098;2022-07-23T09:14:12;0.73;;;0.73;;
8610;SDS011;4343;53.648;10.098;2022-07-23T09:16:37;0.60;;;0.60;;
8610;SDS011;4343;53.648;10.098;2022-07-23T09:19:04;0.80;;;0.80;;
8610;SDS011;4343;53.648;10.098;2022-07-23T09:21:31;0.90;;;0.90;;
8610;SDS011;4343;53.648;10.098;2022-07-23T09:26:38;1.30;;;1.20;;
8610;SDS011;4343;53.648;10.098;2022-07-23T09:29:22;1.38;;;0.70;;
8610;SDS011;4343;53.648;10.098;2022-07-23T09:31:54;1.23;;;0.77;;
8610;SDS011;4343;53.648;10.098;2022-07-23T09:34:24;0.90;;;0.90;;
8610;SDS011;4343;53.648;10.098;2022-07-23T09:36:52;0.65;;;0.60;;
8610;SDS011;4343;53.648;10.098;2022-07-23T09:39:27;0.90;;;0.90;;
8610;SDS011;4343;53.648;10.098;2022-07-23T09:41:54;0.68;;;0.68;;
8610;SDS011;4343;53.648;10.098;2022-07-23T09:44:20;0.85;;;0.77;;
8610;SDS011;4343;53.648;10.098;2022-07-23T09:46:47;2.38;;;0.75;;
8610;SDS011;4343;53.648;10.098;2022-07-23T09:49:23;0.95;;;0.57;;
8610;SDS011;4343;53.648;10.098;2022-07-23T09:54:23;0.60;;;0.60;;
8610;SDS011;4343;53.648;10.098;2022-07-23T09:56:52;0.60;;;0.60;;
8610;SDS011;4343;53.648;10.098;2022-07-23T09:59:18;0.93;;;0.90;;
8610;SDS011;4343;53.648;10.098;2022-07-23T10:01:49;0.90;;;0.90;;
8610;SDS011;4343;53.648;10.098;2022-07-23T10:04:16;1.60;;;0.70;;
8610;SDS011;4343;53.648;10.098;2022-07-23T10:06:43;0.75;;;0.75;;
8610;SDS011;4343;53.648;10.098;2022-07-23T10:09:10;1.10;;;0.70;;
8610;SDS011;4343;53.648;10.098;2022-07-23T10:11:41;0.57;;;0.57;;
8610;SDS011;4343;53.648;10.098;2022-07-23T10:14:07;0.90;;;0.65;;
8610;SDS011;4343;53.648;10.098;2022-07-23T10:16:32;1.33;;;0.82;;
8610;SDS011;4343;53.648;10.098;2022-07-23T10:18:58;0.63;;;0.63;;
8610;SDS011;4343;53.648;10.098;2022-07-23T10:21:31;0.75;;;0.70;;
8610;SDS011;4343;53.648;10.098;2022-07-23T10:24:12;0.60;;;0.60;;
8610;SDS011;4343;53.648;10.098;2022-07-23T10:29:55;0.65;;;0.65;;
8610;SDS011;4343;53.648;10.098;2022-07-23T10:37:45;0.85;;;0.70;;
8610;SDS011;4343;53.648;10.098;2022-07-23T10:40:18;0.60;;;0.60;;
8610;SDS011;4343;53.648;10.098;2022-07-23T10:42:46;0.70;;;0.70;;
8610;SDS011;4343;53.648;10.098;2022-07-23T10:47:56;0.80;;;0.80;;
8610;SDS011;4343;53.648;10.098;2022-07-23T10:50:41;0.73;;;0.73;;
8610;SDS011;4343;53.648;10.098;2022-07-23T10:53:14;0.70;;;0.70;;
8610;SDS011;4343;53.648;10.098;2022-07-23T10:55:49;1.15;;;1.08;;
8610;SDS011;4343;53.648;10.098;2022-07-23T10:58:17;1.05;;;0.73;;
8610;SDS011;4343;53.648;10.098;2022-07-23T11:00:44;0.85;;;0.80;;
8610;SDS011;4343;53.648;10.098;2022-07-23T11:06:01;0.60;;;0.60;;
8610;SDS011;4343;53.648;10.098;2022-07-23T11:08:27;1.48;;;1.02;;
8610;SDS011;4343;53.648;10.098;2022-07-23T11:10:54;0.77;;;0.77;;
8610;SDS011;4343;53.648;10.098;2022-07-23T11:13:26;1.00;;;1.00;;
8610;SDS011;4343;53.648;10.098;2022-07-23T11:37:05;1.02;;;0.90;;
8610;SDS011;4343;53.648;10.098;2022-07-23T11:39:33;0.60;;;0.60;;
8610;SDS011;4343;53.648;10.098;2022-07-23T11:41:59;0.90;;;0.90;;
8610;SDS011;4343;53.648;10.098;2022-07-23T11:44:27;1.10;;;1.10;;
8610;SDS011;4343;53.648;10.098;2022-07-23T11:47:04;1.05;;;1.00;;
8610;SDS011;4343;53.648;10.098;2022-07-23T11:49:31;0.80;;;0.80;;
8610;SDS011;4343;53.648;10.098;2022-07-23T11:52:07;0.98;;;0.98;;
8610;SDS011;4343;53.648;10.098;2022-07-23T11:54:36;0.77;;;0.77;;
8610;SDS011;4343;53.648;10.098;2022-07-23T11:57:11;0.90;;;0.90;;
8610;SDS011;4343;53.648;10.098;2022-07-23T11:59:37;1.08;;;1.08;;
8610;SDS011;4343;53.648;10.098;2022-07-23T12:02:04;2.10;;;1.00;;
8610;SDS011;4343;53.648;10.098;2022-07-23T12:09:51;0.80;;;0.80;;
8610;SDS011;4343;53.648;10.098;2022-07-23T12:12:17;0.80;;;0.80;;
8610;SDS011;4343;53.648;10.098;2022-07-23T12:14:47;1.02;;;1.02;;
8610;SDS011;4343;53.648;10.098;2022-07-23T12:17:16;0.63;;;0.63;;
8610;SDS011;4343;53.648;10.098;2022-07-23T12:19:42;1.00;;;0.90;;
8610;SDS011;4343;53.648;10.098;2022-07-23T12:22:08;1.27;;;1.17;;
8610;SDS011;4343;53.648;10.098;2022-07-23T12:27:23;1.90;;;1.20;;
8610;SDS011;4343;53.648;10.098;2022-07-23T12:29:49;1.23;;;1.20;;
8610;SDS011;4343;53.648;10.098;2022-07-23T12:34:45;1.00;;;1.00;;
8610;SDS011;4343;53.648;10.098;2022-07-23T12:37:25;1.55;;;1.42;;
8610;SDS011;4343;53.648;10.098;2022-07-23T12:39:55;2.20;;;0.73;;
8610;SDS011;4343;53.648;10.098;2022-07-23T12:42:22;1.60;;;0.70;;
8610;SDS011;4343;53.648;10.098;2022-07-23T12:45:08;0.98;;;0.60;;
8610;SDS011;4343;53.648;10.098;2022-07-23T12:55:38;2.97;;;0.80;;
8610;SDS011;4343;53.648;10.098;2022-07-23T13:00:32;2.70;;;0.75;;
8610;SDS011;4343;53.648;10.098;2022-07-23T13:03:29;1.35;;;0.60;;
8610;SDS011;4343;53.648;10.098;2022-07-23T13:06:00;1.15;;;1.00;;
8610;SDS011;4343;53.648;10.098;2022-07-23T13:08:28;0.70;;;0.70;;
8610;SDS011;4343;53.648;10.098;2022-07-23T13:10:54;2.55;;;0.80;;
8610;SDS011;4343;53.648;10.098;2022-07-23T13:13:21;0.77;;;0.77;;
8610;SDS011;4343;53.648;10.098;2022-07-23T13:15:48;0.93;;;0.77;;
8610;SDS011;4343;53.648;10.098;2022-07-23T13:18:14;0.68;;;0.68;;
8610;SDS011;4343;53.648;10.098;2022-07-23T13:20:39;0.82;;;0.80;;
8610;SDS011;4343;53.648;10.098;2022-07-23T13:23:06;1.20;;;0.93;;
8610;SDS011;4343;53.648;10.098;2022-07-23T13:25:32;1.70;;;0.70;;
8610;SDS011;4343;53.648;10.098;2022-07-23T13:27:58;0.70;;;0.70;;
8610;SDS011;4343;53.648;10.098;2022-07-23T13:30:23;0.85;;;0.85;;
8610;SDS011;4343;53.648;10.098;2022-07-23T13:32:49;0.52;;;0.52;;
8610;SDS011;4343;53.648;10.098;2022-07-23T13:35:14;0.43;;;0.43;;
8610;SDS011;4343;53.648;10.098;2022-07-23T13:37:40;0.50;;;0.50;;
8610;SDS011;4343;53.648;10.098;2022-07-23T13:40:06;0.57;;;0.57;;
8610;SDS011;4343;53.648;10.098;2022-07-23T13:42:32;1.05;;;0.93;;
8610;SDS011;4343;53.648;10.098;2022-07-23T13:44:58;0.88;;;0.60;;
8610;SDS011;4343;53.648;10.098;2022-07-23T13:47:24;1.80;;;0.70;;
8610;SDS011;4343;53.648;10.098;2022-07-23T13:49:50;1.08;;;0.80;;
8610;SDS011;4343;53.648;10.098;2022-07-23T13:52:15;0.82;;;0.82;;
8610;SDS011;4343;53.648;10.098;2022-07-23T13:54:41;0.65;;;0.65;;
8610;SDS011;4343;53.648;10.098;2022-07-23T13:57:06;0.80;;;0.75;;
8610;SDS011;4343;53.648;10.098;2022-07-23T13:59:34;0.93;;;0.90;;
8610;SDS011;4343;53.648;10.098;2022-07-23T14:02:00;0.73;;;0.70;;
8610;SDS011;4343;53.648;10.098;2022-07-23T14:04:27;0.88;;;0.88;;
8610;SDS011;4343;53.648;10.098;2022-07-23T14:06:53;1.20;;;1.00;;
8610;SDS011;4343;53.648;10.098;2022-07-23T14:09:18;0.82;;;0.75;;
8610;SDS011;4343;53.648;10.098;2022-07-23T14:11:44;1.35;;;0.80;;
8610;SDS011;4343;53.648;10.098;2022-07-23T14:14:10;0.80;;;0.80;;
8610;SDS011;4343;53.648;10.098;2022-07-23T14:16:35;1.02;;;0.70;;
8610;SDS011;4343;53.648;10.098;2022-07-23T14:19:01;0.75;;;0.75;;
8610;SDS011;4343;53.648;10.098;2022-07-23T14:21:27;0.90;;;0.70;;
8610;SDS011;4343;53.648;10.098;2022-07-23T14:23:53;0.85;;;0.82;;
8610;SDS011;4343;53.648;10.098;2022-07-23T14:26:18;0.93;;;0.93;;
8610;SDS011;4343;53.648;10.098;2022-07-23T14:28:44;0.80;;;0.80;;
8610;SDS011;4343;53.648;10.098;2022-07-23T14:31:10;0.75;;;0.75;;
8610;SDS011;4343;53.648;10.098;2022-07-23T14:33:35;1.40;;;0.80;;
8610;SDS011;4343;53.648;10.098;2022-07-23T14:36:01;0.60;;;0.60;;
8610;SDS011;4343;53.648;10.098;2022-07-23T14:38:27;1.40;;;0.77;;
8610;SDS011;4343;53.648;10.098;2022-07-23T14:40:55;0.80;;;0.80;;
8610;SDS011;4343;53.648;10.098;2022-07-23T14:43:21;0.80;;;0.70;;
8610;SDS011;4343;53.648;10.098;2022-07-23T14:45:46;0.90;;;0.77;;
8610;SDS011;4343;53.648;10.098;2022-07-23T14:48:12;0.65;;;0.60;;
8610;SDS011;4343;53.648;10.098;2022-07-23T14:50:38;1.00;;;0.88;;
8610;SDS011;4343;53.648;10.098;2022-07-23T14:53:03;1.00;;;0.80;;
8610;SDS011;4343;53.648;10.098;2022-07-23T14:55:32;0.80;;;0.80;;
8610;SDS011;4343;53.648;10.098;2022-07-23T14:57:59;0.70;;;0.70;;
8610;SDS011;4343;53.648;10.098;2022-07-23T15:00:25;0.70;;;0.70;;
8610;SDS011;4343;53.648;10.098;2022-07-23T15:02:51;0.82;;;0.70;;
8610;SDS011;4343;53.648;10.098;2022-07-23T15:05:18;0.60;;;0.60;;
8610;SDS011;4343;53.648;10.098;2022-07-23T15:07:43;0.60;;;0.60;;
8610;SDS011;4343;53.648;10.098;2022-07-23T15:10:09;0.93;;;0.85;;
8610;SDS011;4343;53.648;10.098;2022-07-23T15:12:35;0.70;;;0.70;;
8610;SDS011;4343;53.648;10.098;2022-07-23T15:15:00;0.63;;;0.63;;
8610;SDS011;4343;53.648;10.098;2022-07-23T15:17:26;0.80;;;0.80;;
8610;SDS011;4343;53.648;10.098;2022-07-23T15:19:51;0.55;;;0.55;;
8610;SDS011;4343;53.648;10.098;2022-07-23T15:22:17;0.65;;;0.65;;
8610;SDS011;4343;53.648;10.098;2022-07-23T15:24:43;0.80;;;0.80;;
8610;SDS011;4343;53.648;10.098;2022-07-23T15:27:09;0.82;;;0.82;;
8610;SDS011;4343;53.648;10.098;2022-07-23T15:29:34;0.95;;;0.95;;
8610;SDS011;4343;53.648;10.098;2022-07-23T15:32:01;0.85;;;0.85;;
8610;SDS011;4343;53.648;10.098;2022-07-23T15:34:27;0.80;;;0.80;;
8610;SDS011;4343;53.648;10.098;2022-07-23T15:36:53;0.90;;;0.90;;
8610;SDS011;4343;53.648;10.098;2022-07-23T15:39:18;0.85;;;0.82;;
8610;SDS011;4343;53.648;10.098;2022-07-23T15:41:44;1.00;;;1.00;;
8610;SDS011;4343;53.648;10.098;2022-07-23T15:44:09;0.70;;;0.70;;
8610;SDS011;4343;53.648;10.098;2022-07-23T15:46:35;0.82;;;0.82;;
8610;SDS011;4343;53.648;10.098;2022-07-23T15:49:01;0.98;;;0.98;;
8610;SDS011;4343;53.648;10.098;2022-07-23T15:51:26;1.20;;;1.20;;
8610;SDS011;4343;53.648;10.098;2022-07-23T15:53:52;1.00;;;1.00;;
8610;SDS011;4343;53.648;10.098;2022-07-23T15:56:17;1.17;;;0.90;;
8610;SDS011;4343;53.648;10.098;2022-07-23T15:58:43;0.80;;;0.80;;
8610;SDS011;4343;53.648;10.098;2022-07-23T16:01:09;0.70;;;0.70;;
8610;SDS011;4343;53.648;10.098;2022-07-23T16:03:35;0.70;;;0.70;;
8610;SDS011;4343;53.648;10.098;2022-07-23T16:06:01;0.80;;;0.80;;
8610;SDS011;4343;53.648;10.098;2022-07-23T16:08:40;0.73;;;0.73;;
8610;SDS011;4343;53.648;10.098;2022-07-23T16:11:12;1.70;;;1.30;;
8610;SDS011;4343;53.648;10.098;2022-07-23T16:13:47;1.08;;;1.00;;
8610;SDS011;4343;53.648;10.098;2022-07-23T16:27:39;0.85;;;0.85;;
8610;SDS011;4343;53.648;10.098;2022-07-23T16:30:46;1.52;;;0.88;;
8610;SDS011;4343;53.648;10.098;2022-07-23T16:34:08;0.80;;;0.80;;
8610;SDS011;4343;53.648;10.098;2022-07-23T16:37:28;0.70;;;0.70;;
8610;SDS011;4343;53.648;10.098;2022-07-23T16:40:38;0.60;;;0.60;;
8610;SDS011;4343;53.648;10.098;2022-07-23T16:43:33;0.85;;;0.70;;
8610;SDS011;4343;53.648;10.098;2022-07-23T16:46:30;1.02;;;0.93;;
8610;SDS011;4343;53.648;10.098;2022-07-23T16:49:22;0.82;;;0.80;;
8610;SDS011;4343;53.648;10.098;2022-07-23T16:55:55;0.73;;;0.70;;
8610;SDS011;4343;53.648;10.098;2022-07-23T16:58:20;0.82;;;0.82;;
8610;SDS011;4343;53.648;10.098;2022-07-23T17:00:46;0.98;;;0.98;;
8610;SDS011;4343;53.648;10.098;2022-07-23T17:03:12;0.68;;;0.68;;
8610;SDS011;4343;53.648;10.098;2022-07-23T17:05:37;1.23;;;1.23;;
8610;SDS011;4343;53.648;10.098;2022-07-23T17:08:03;1.00;;;1.00;;
8610;SDS011;4343;53.648;10.098;2022-07-23T17:10:29;1.25;;;1.08;;
8610;SDS011;4343;53.648;10.098;2022-07-23T17:12:55;0.80;;;0.80;;
8610;SDS011;4343;53.648;10.098;2022-07-23T17:15:22;0.80;;;0.80;;
8610;SDS011;4343;53.648;10.098;2022-07-23T17:17:48;0.93;;;0.93;;
8610;SDS011;4343;53.648;10.098;2022-07-23T17:20:14;1.40;;;1.10;;
8610;SDS011;4343;53.648;10.098;2022-07-23T17:22:40;0.73;;;0.73;;
8610;SDS011;4343;53.648;10.098;2022-07-23T17:25:07;0.90;;;0.90;;
8610;SDS011;4343;53.648;10.098;2022-07-23T17:27:38;1.05;;;0.98;;
8610;SDS011;4343;53.648;10.098;2022-07-23T17:30:04;1.40;;;1.40;;
8610;SDS011;4343;53.648;10.098;2022-07-23T17:32:30;2.63;;;2.50;;
8610;SDS011;4343;53.648;10.098;2022-07-23T17:34:56;3.35;;;3.08;;
8610;SDS011;4343;53.648;10.098;2022-07-23T17:37:21;2.10;;;2.00;;
8610;SDS011;4343;53.648;10.098;2022-07-23T17:39:47;1.50;;;1.40;;
8610;SDS011;4343;53.648;10.098;2022-07-23T17:42:12;1.20;;;1.20;;
8610;SDS011;4343;53.648;10.098;2022-07-23T17:44:38;1.10;;;1.10;;
8610;SDS011;4343;53.648;10.098;2022-07-23T17:47:03;1.20;;;1.10;;
8610;SDS011;4343;53.648;10.098;2022-07-23T17:49:29;1.10;;;1.10;;
8610;SDS011;4343;53.648;10.098;2022-07-23T17:51:55;1.00;;;1.00;;
8610;SDS011;4343;53.648;10.098;2022-07-23T17:54:20;1.07;;;0.97;;
8610;SDS011;4343;53.648;10.098;2022-07-23T17:56:46;0.90;;;0.90;;
8610;SDS011;4343;53.648;10.098;2022-07-23T17:59:12;1.00;;;1.00;;
8610;SDS011;4343;53.648;10.098;2022-07-23T18:01:38;0.90;;;0.90;;
8610;SDS011;4343;53.648;10.098;2022-07-23T18:04:05;1.13;;;1.13;;
8610;SDS011;4343;53.648;10.098;2022-07-23T18:06:31;1.10;;;1.10;;
8610;SDS011;4343;53.648;10.098;2022-07-23T18:08:57;1.33;;;1.33;;
8610;SDS011;4343;53.648;10.098;2022-07-23T18:11:22;1.13;;;1.02;;
8610;SDS011;4343;53.648;10.098;2022-07-23T18:13:48;1.00;;;1.00;;
8610;SDS011;4343;53.648;10.098;2022-07-23T18:16:13;1.00;;;1.00;;
8610;SDS011;4343;53.648;10.098;2022-07-23T18:18:39;1.10;;;1.00;;
8610;SDS011;4343;53.648;10.098;2022-07-23T18:21:06;1.10;;;1.10;;
8610;SDS011;4343;53.648;10.098;2022-07-23T18:23:31;1.30;;;1.20;;
8610;SDS011;4343;53.648;10.098;2022-07-23T18:25:57;1.20;;;1.20;;
8610;SDS011;4343;53.648;10.098;2022-07-23T18:28:22;1.20;;;1.20;;
8610;SDS011;4343;53.648;10.098;2022-07-23T18:30:49;1.33;;;1.23;;
8610;SDS011;4343;53.648;10.098;2022-07-23T18:33:15;1.25;;;1.25;;
8610;SDS011;4343;53.648;10.098;2022-07-23T18:35:41;1.42;;;1.33;;
8610;SDS011;4343;53.648;10.098;2022-07-23T18:38:07;1.40;;;1.30;;
8610;SDS011;4343;53.648;10.098;2022-07-23T18:40:33;0.95;;;0.95;;
8610;SDS011;4343;53.648;10.098;2022-07-23T18:42:59;1.38;;;1.27;;
8610;SDS011;4343;53.648;10.098;2022-07-23T18:45:25;1.20;;;1.20;;
8610;SDS011;4343;53.648;10.098;2022-07-23T18:47:51;1.33;;;1.23;;
8610;SDS011;4343;53.648;10.098;2022-07-23T18:50:18;1.70;;;1.70;;
8610;SDS011;4343;53.648;10.098;2022-07-23T18:52:44;1.42;;;1.33;;
8610;SDS011;4343;53.648;10.098;2022-07-23T18:55:09;1.38;;;1.38;;
8610;SDS011;4343;53.648;10.098;2022-07-23T18:57:35;1.20;;;1.20;;
8610;SDS011;4343;53.648;10.098;2022-07-23T19:00:05;2.15;;;1.38;;
8610;SDS011;4343;53.648;10.098;2022-07-23T19:02:32;1.50;;;1.40;;
8610;SDS011;4343;53.648;10.098;2022-07-23T19:04:58;1.73;;;1.43;;
8610;SDS011;4343;53.648;10.098;2022-07-23T19:07:24;1.40;;;1.40;;
8610;SDS011;4343;53.648;10.098;2022-07-23T19:09:49;1.60;;;1.50;;
8610;SDS011;4343;53.648;10.098;2022-07-23T19:12:15;1.60;;;1.50;;
8610;SDS011;4343;53.648;10.098;2022-07-23T19:14:41;1.50;;;1.50;;
8610;SDS011;4343;53.648;10.098;2022-07-23T19:17:06;1.73;;;1.63;;
8610;SDS011;4343;53.648;10.098;2022-07-23T19:19:32;1.60;;;1.60;;
8610;SDS011;4343;53.648;10.098;2022-07-23T19:21:57;1.80;;;1.70;;
8610;SDS011;4343;53.648;10.098;2022-07-23T19:24:23;1.70;;;1.60;;
8610;SDS011;4343;53.648;10.098;2022-07-23T19:26:49;1.60;;;1.50;;
8610;SDS011;4343;53.648;10.098;2022-07-23T19:29:15;1.50;;;1.50;;
8610;SDS011;4343;53.648;10.098;2022-07-23T19:31:40;1.43;;;1.43;;
8610;SDS011;4343;53.648;10.098;2022-07-23T19:34:06;1.70;;;1.70;;
8610;SDS011;4343;53.648;10.098;2022-07-23T19:36:31;1.50;;;1.50;;
8610;SDS011;4343;53.648;10.098;2022-07-23T19:38:57;1.90;;;1.80;;
8610;SDS011;4343;53.648;10.098;2022-07-23T19:41:23;1.80;;;1.70;;
8610;SDS011;4343;53.648;10.098;2022-07-23T19:43:48;1.95;;;1.85;;
8610;SDS011;4343;53.648;10.098;2022-07-23T19:46:14;1.90;;;1.83;;
8610;SDS011;4343;53.648;10.098;2022-07-23T19:48:39;2.27;;;2.17;;
8610;SDS011;4343;53.648;10.098;2022-07-23T19:51:05;2.40;;;2.30;;
8610;SDS011;4343;53.648;10.098;2022-07-23T19:53:31;2.70;;;2.60;;
8610;SDS011;4343;53.648;10.098;2022-07-23T19:55:56;2.85;;;2.65;;
8610;SDS011;4343;53.648;10.098;2022-07-23T19:58:22;2.85;;;2.65;;
8610;SDS011;4343;53.648;10.098;2022-07-23T20:00:47;2.28;;;2.17;;
8610;SDS011;4343;53.648;10.098;2022-07-23T20:03:13;2.40;;;2.28;;
8610;SDS011;4343;53.648;10.098;2022-07-23T20:05:38;1.90;;;1.80;;
8610;SDS011;4343;53.648;10.098;2022-07-23T21:47:53;2.13;;;2.03;;
8610;SDS011;4343;53.648;10.098;2022-07-23T21:50:19;2.28;;;2.08;;
8610;SDS011;4343;53.648;10.098;2022-07-23T21:52:44;1.77;;;1.67;;
8610;SDS011;4343;53.648;10.098;2022-07-23T21:55:10;1.75;;;1.70;;
8610;SDS011;4343;53.648;10.098;2022-07-23T21:57:35;1.75;;;1.65;;
8610;SDS011;4343;53.648;10.098;2022-07-23T22:00:02;2.10;;;2.00;;
8610;SDS011;4343;53.648;10.098;2022-07-23T22:02:36;2.30;;;2.20;;
8610;SDS011;4343;53.648;10.098;2022-07-23T22:05:02;2.22;;;2.13;;
8610;SDS011;4343;53.648;10.098;2022-07-23T22:07:27;2.03;;;1.92;;
8610;SDS011;4343;53.648;10.098;2022-07-23T22:09:54;2.83;;;2.33;;
8610;SDS011;4343;53.648;10.098;2022-07-23T22:12:23;2.17;;;2.08;;
8610;SDS011;4343;53.648;10.098;2022-07-23T22:14:49;1.85;;;1.75;;
8610;SDS011;4343;53.648;10.098;2022-07-23T22:17:16;1.70;;;1.60;;
8610;SDS011;4343;53.648;10.098;2022-07-23T22:19:43;1.75;;;1.65;;
8610;SDS011;4343;53.648;10.098;2022-07-23T22:22:09;2.17;;;2.08;;
8610;SDS011;4343;53.648;10.098;2022-07-23T22:24:36;1.88;;;1.77;;
8610;SDS011;4343;53.648;10.098;2022-07-23T22:27:04;1.70;;;1.60;;
8610;SDS011;4343;53.648;10.098;2022-07-23T22:29:33;1.60;;;1.60;;
8610;SDS011;4343;53.648;10.098;2022-07-23T22:32:00;2.20;;;2.00;;
8610;SDS011;4343;53.648;10.098;2022-07-23T22:35:06;2.10;;;1.90;;
8610;SDS011;4343;53.648;10.098;2022-07-23T22:38:38;2.15;;;1.95;;
8610;SDS011;4343;53.648;10.098;2022-07-23T22:45:53;1.88;;;1.77;;
8610;SDS011;4343;53.648;10.098;2022-07-23T22:53:11;1.90;;;1.80;;
8610;SDS011;4343;53.648;10.098;2022-07-23T22:57:00;2.83;;;2.10;;
8610;SDS011;4343;53.648;10.098;2022-07-23T23:00:46;2.17;;;1.92;;
8610;SDS011;4343;53.648;10.098;2022-07-23T23:04:13;1.88;;;1.77;;
8610;SDS011;4343;53.648;10.098;2022-07-23T23:06:39;1.85;;;1.75;;